KMOP/MOP METAR and TAF weather

Enter ICAO airport designator
Station Type Date Time Source
KMOP METAR 2020/09/18 19:15 UTC NOAA

KMOP 181915Z AUTO 03006KT 10SM CLR 15/M01 A3035 RMK AO2 T01461013


Station Type Date Time Source
KMOP Decoded METAR 2020/09/18 19:15 UTC NOAA

Mount Pleasant, Mount Pleasant Municipal Airport, MI, United States (KMOP) 43-37N 84-44W
Sep 18, 2020 - 03:15 PM EDT / 2020.09.18 1915 UTC
Wind: from the NNE (030 degrees) at 7 MPH (6 KT):0
Visibility: 10 mile(s):0
Sky conditions: clear
Temperature: 58.3 F (14.6 C)
Dew Point: 29.7 F (-1.3 C)
Relative Humidity: 33%
Pressure (altimeter): 30.35 in. Hg (1027 hPa)
ob: KMOP 181915Z AUTO 03006KT 10SM CLR 15/M01 A3035 RMK AO2 T01461013
cycle: 19

Station Type Date Time Source
KMOP TAF UTC NOAA

Error!

Example: see airport list